sensor_id;sensor_type;location;lat;lon;timestamp;P1;durP1;ratioP1;P2;durP2;ratioP2
71360;SDS011;59166;48.908;1.870;2022-11-23T00:04:50;13.10;;;2.40;;
71360;SDS011;59166;48.908;1.870;2022-11-23T00:09:52;13.73;;;2.30;;
71360;SDS011;59166;48.908;1.870;2022-11-23T00:14:53;17.15;;;3.65;;
71360;SDS011;59166;48.908;1.870;2022-11-23T00:19:54;16.50;;;2.90;;
71360;SDS011;59166;48.908;1.870;2022-11-23T00:24:56;12.47;;;2.10;;
71360;SDS011;59166;48.908;1.870;2022-11-23T00:29:57;11.48;;;1.77;;
71360;SDS011;59166;48.908;1.870;2022-11-23T00:34:58;11.35;;;2.00;;
71360;SDS011;59166;48.908;1.870;2022-11-23T00:40:00;10.80;;;2.13;;
71360;SDS011;59166;48.908;1.870;2022-11-23T00:45:01;14.20;;;2.40;;
71360;SDS011;59166;48.908;1.870;2022-11-23T00:50:02;11.90;;;2.03;;
71360;SDS011;59166;48.908;1.870;2022-11-23T00:55:05;12.73;;;2.22;;
71360;SDS011;59166;48.908;1.870;2022-11-23T01:00:07;12.18;;;2.00;;
71360;SDS011;59166;48.908;1.870;2022-11-23T01:05:08;14.17;;;2.10;;
71360;SDS011;59166;48.908;1.870;2022-11-23T01:10:11;10.45;;;1.95;;
71360;SDS011;59166;48.908;1.870;2022-11-23T01:15:12;11.88;;;2.10;;
71360;SDS011;59166;48.908;1.870;2022-11-23T01:20:13;13.73;;;2.07;;
71360;SDS011;59166;48.908;1.870;2022-11-23T01:25:16;10.43;;;2.08;;
71360;SDS011;59166;48.908;1.870;2022-11-23T01:30:17;12.70;;;2.33;;
71360;SDS011;59166;48.908;1.870;2022-11-23T01:35:18;10.53;;;2.00;;
71360;SDS011;59166;48.908;1.870;2022-11-23T01:40:20;10.25;;;2.08;;
71360;SDS011;59166;48.908;1.870;2022-11-23T01:45:35;13.47;;;2.20;;
71360;SDS011;59166;48.908;1.870;2022-11-23T01:50:39;12.48;;;2.38;;
71360;SDS011;59166;48.908;1.870;2022-11-23T01:55:43;13.57;;;2.35;;
71360;SDS011;59166;48.908;1.870;2022-11-23T02:00:45;12.17;;;2.70;;
71360;SDS011;59166;48.908;1.870;2022-11-23T02:05:47;8.93;;;2.10;;
71360;SDS011;59166;48.908;1.870;2022-11-23T02:10:52;10.60;;;2.53;;
71360;SDS011;59166;48.908;1.870;2022-11-23T02:15:54;9.30;;;2.37;;
71360;SDS011;59166;48.908;1.870;2022-11-23T02:20:57;8.97;;;2.20;;
71360;SDS011;59166;48.908;1.870;2022-11-23T02:26:03;11.52;;;2.60;;
71360;SDS011;59166;48.908;1.870;2022-11-23T02:31:25;13.68;;;2.80;;
71360;SDS011;59166;48.908;1.870;2022-11-23T02:36:33;10.83;;;2.40;;
71360;SDS011;59166;48.908;1.870;2022-11-23T02:41:39;13.85;;;2.80;;
71360;SDS011;59166;48.908;1.870;2022-11-23T02:46:42;14.60;;;3.03;;
71360;SDS011;59166;48.908;1.870;2022-11-23T02:51:43;15.80;;;3.10;;
71360;SDS011;59166;48.908;1.870;2022-11-23T02:56:45;13.57;;;3.20;;
71360;SDS011;59166;48.908;1.870;2022-11-23T03:01:46;15.33;;;3.07;;
71360;SDS011;59166;48.908;1.870;2022-11-23T03:06:47;12.93;;;3.20;;
71360;SDS011;59166;48.908;1.870;2022-11-23T03:11:49;12.63;;;3.25;;
71360;SDS011;59166;48.908;1.870;2022-11-23T03:16:50;13.20;;;3.40;;
71360;SDS011;59166;48.908;1.870;2022-11-23T03:21:51;13.77;;;3.38;;
71360;SDS011;59166;48.908;1.870;2022-11-23T03:26:53;9.77;;;3.10;;
71360;SDS011;59166;48.908;1.870;2022-11-23T03:31:54;12.70;;;3.17;;
71360;SDS011;59166;48.908;1.870;2022-11-23T03:36:55;15.27;;;4.00;;
71360;SDS011;59166;48.908;1.870;2022-11-23T03:41:58;15.50;;;3.87;;
71360;SDS011;59166;48.908;1.870;2022-11-23T03:46:58;12.95;;;3.78;;
71360;SDS011;59166;48.908;1.870;2022-11-23T03:51:59;11.87;;;3.57;;
71360;SDS011;59166;48.908;1.870;2022-11-23T03:57:01;11.95;;;3.60;;
71360;SDS011;59166;48.908;1.870;2022-11-23T04:02:02;11.70;;;3.50;;
71360;SDS011;59166;48.908;1.870;2022-11-23T04:07:03;14.17;;;3.67;;
71360;SDS011;59166;48.908;1.870;2022-11-23T04:12:11;15.60;;;3.65;;
71360;SDS011;59166;48.908;1.870;2022-11-23T04:17:12;14.05;;;3.95;;
71360;SDS011;59166;48.908;1.870;2022-11-23T04:22:13;10.60;;;3.73;;
71360;SDS011;59166;48.908;1.870;2022-11-23T04:27:15;14.40;;;4.03;;
71360;SDS011;59166;48.908;1.870;2022-11-23T04:32:16;13.30;;;3.33;;
71360;SDS011;59166;48.908;1.870;2022-11-23T04:37:17;13.63;;;4.10;;
71360;SDS011;59166;48.908;1.870;2022-11-23T04:42:19;12.87;;;4.00;;
71360;SDS011;59166;48.908;1.870;2022-11-23T04:47:21;16.35;;;3.65;;
71360;SDS011;59166;48.908;1.870;2022-11-23T04:52:22;14.23;;;3.65;;
71360;SDS011;59166;48.908;1.870;2022-11-23T04:57:24;13.50;;;3.63;;
71360;SDS011;59166;48.908;1.870;2022-11-23T05:02:25;13.88;;;3.35;;
71360;SDS011;59166;48.908;1.870;2022-11-23T05:07:26;11.68;;;3.13;;
71360;SDS011;59166;48.908;1.870;2022-11-23T05:12:28;11.43;;;3.13;;
71360;SDS011;59166;48.908;1.870;2022-11-23T05:17:29;12.45;;;3.28;;
71360;SDS011;59166;48.908;1.870;2022-11-23T05:22:30;10.83;;;2.97;;
71360;SDS011;59166;48.908;1.870;2022-11-23T05:27:33;7.93;;;2.50;;
71360;SDS011;59166;48.908;1.870;2022-11-23T05:32:38;7.35;;;2.50;;
71360;SDS011;59166;48.908;1.870;2022-11-23T05:37:39;12.70;;;3.20;;
71360;SDS011;59166;48.908;1.870;2022-11-23T05:42:42;11.77;;;3.10;;
71360;SDS011;59166;48.908;1.870;2022-11-23T05:47:42;11.05;;;2.92;;
71360;SDS011;59166;48.908;1.870;2022-11-23T05:52:49;11.57;;;2.83;;
71360;SDS011;59166;48.908;1.870;2022-11-23T05:57:51;10.67;;;3.30;;
71360;SDS011;59166;48.908;1.870;2022-11-23T06:02:57;12.85;;;2.92;;
71360;SDS011;59166;48.908;1.870;2022-11-23T06:07:58;12.10;;;3.00;;
71360;SDS011;59166;48.908;1.870;2022-11-23T06:13:04;11.87;;;3.07;;
71360;SDS011;59166;48.908;1.870;2022-11-23T06:18:05;10.52;;;2.47;;
71360;SDS011;59166;48.908;1.870;2022-11-23T06:23:05;9.43;;;2.60;;
71360;SDS011;59166;48.908;1.870;2022-11-23T06:28:08;9.95;;;2.80;;
71360;SDS011;59166;48.908;1.870;2022-11-23T06:33:09;10.73;;;2.87;;
71360;SDS011;59166;48.908;1.870;2022-11-23T06:38:10;12.60;;;2.88;;
71360;SDS011;59166;48.908;1.870;2022-11-23T06:43:12;9.23;;;2.75;;
71360;SDS011;59166;48.908;1.870;2022-11-23T06:48:13;11.77;;;3.07;;
71360;SDS011;59166;48.908;1.870;2022-11-23T06:53:14;9.80;;;2.63;;
71360;SDS011;59166;48.908;1.870;2022-11-23T06:58:16;9.67;;;2.87;;
71360;SDS011;59166;48.908;1.870;2022-11-23T07:03:18;10.68;;;3.10;;
71360;SDS011;59166;48.908;1.870;2022-11-23T07:08:20;10.95;;;3.10;;
71360;SDS011;59166;48.908;1.870;2022-11-23T07:13:22;11.00;;;2.83;;
71360;SDS011;59166;48.908;1.870;2022-11-23T07:18:23;10.48;;;2.90;;
71360;SDS011;59166;48.908;1.870;2022-11-23T07:23:44;10.80;;;3.00;;
71360;SDS011;59166;48.908;1.870;2022-11-23T07:28:46;9.87;;;2.87;;
71360;SDS011;59166;48.908;1.870;2022-11-23T07:33:47;9.55;;;2.80;;
71360;SDS011;59166;48.908;1.870;2022-11-23T07:38:48;8.60;;;2.80;;
71360;SDS011;59166;48.908;1.870;2022-11-23T07:43:50;7.43;;;2.50;;
71360;SDS011;59166;48.908;1.870;2022-11-23T07:48:51;8.98;;;2.70;;
71360;SDS011;59166;48.908;1.870;2022-11-23T07:53:52;7.90;;;2.50;;
71360;SDS011;59166;48.908;1.870;2022-11-23T07:58:54;8.68;;;2.20;;
71360;SDS011;59166;48.908;1.870;2022-11-23T08:03:55;6.27;;;1.87;;
71360;SDS011;59166;48.908;1.870;2022-11-23T08:08:56;7.10;;;1.80;;
71360;SDS011;59166;48.908;1.870;2022-11-23T08:13:59;6.85;;;1.80;;
71360;SDS011;59166;48.908;1.870;2022-11-23T08:18:59;6.20;;;1.80;;
71360;SDS011;59166;48.908;1.870;2022-11-23T08:24:00;6.67;;;1.87;;
71360;SDS011;59166;48.908;1.870;2022-11-23T08:29:03;7.88;;;2.10;;
71360;SDS011;59166;48.908;1.870;2022-11-23T08:34:04;6.87;;;2.00;;
71360;SDS011;59166;48.908;1.870;2022-11-23T08:39:05;5.70;;;1.80;;
71360;SDS011;59166;48.908;1.870;2022-11-23T08:44:07;6.27;;;2.07;;
71360;SDS011;59166;48.908;1.870;2022-11-23T08:49:08;9.10;;;2.28;;
71360;SDS011;59166;48.908;1.870;2022-11-23T08:54:09;8.10;;;2.30;;
71360;SDS011;59166;48.908;1.870;2022-11-23T08:59:11;8.52;;;2.40;;
71360;SDS011;59166;48.908;1.870;2022-11-23T09:04:12;7.90;;;2.47;;
71360;SDS011;59166;48.908;1.870;2022-11-23T09:09:13;7.40;;;2.40;;
71360;SDS011;59166;48.908;1.870;2022-11-23T09:14:16;8.52;;;2.30;;
71360;SDS011;59166;48.908;1.870;2022-11-23T09:19:17;8.05;;;2.20;;
71360;SDS011;59166;48.908;1.870;2022-11-23T09:24:18;7.63;;;2.20;;
71360;SDS011;59166;48.908;1.870;2022-11-23T09:29:20;6.85;;;2.20;;
71360;SDS011;59166;48.908;1.870;2022-11-23T09:34:21;5.13;;;1.70;;
71360;SDS011;59166;48.908;1.870;2022-11-23T09:39:22;7.53;;;2.10;;
71360;SDS011;59166;48.908;1.870;2022-11-23T09:44:26;5.88;;;2.00;;
71360;SDS011;59166;48.908;1.870;2022-11-23T09:49:37;7.05;;;2.00;;
71360;SDS011;59166;48.908;1.870;2022-11-23T09:54:44;6.40;;;2.00;;
71360;SDS011;59166;48.908;1.870;2022-11-23T09:59:51;6.13;;;1.73;;
71360;SDS011;59166;48.908;1.870;2022-11-23T10:04:57;6.00;;;1.70;;
71360;SDS011;59166;48.908;1.870;2022-11-23T10:10:02;5.47;;;1.80;;
71360;SDS011;59166;48.908;1.870;2022-11-23T10:15:17;5.60;;;1.60;;
71360;SDS011;59166;48.908;1.870;2022-11-23T10:20:42;5.57;;;1.60;;
71360;SDS011;59166;48.908;1.870;2022-11-23T10:26:01;5.15;;;1.58;;
71360;SDS011;59166;48.908;1.870;2022-11-23T10:31:06;3.47;;;1.30;;
71360;SDS011;59166;48.908;1.870;2022-11-23T10:36:12;3.80;;;1.30;;
71360;SDS011;59166;48.908;1.870;2022-11-23T10:41:13;3.77;;;1.30;;
71360;SDS011;59166;48.908;1.870;2022-11-23T10:51:46;4.65;;;1.35;;
71360;SDS011;59166;48.908;1.870;2022-11-23T10:56:50;4.53;;;1.40;;
71360;SDS011;59166;48.908;1.870;2022-11-23T11:01:59;4.77;;;1.33;;
71360;SDS011;59166;48.908;1.870;2022-11-23T11:07:09;6.45;;;2.05;;
71360;SDS011;59166;48.908;1.870;2022-11-23T11:12:17;6.07;;;1.80;;
71360;SDS011;59166;48.908;1.870;2022-11-23T11:17:25;6.70;;;2.10;;
71360;SDS011;59166;48.908;1.870;2022-11-23T11:22:29;2.58;;;0.98;;
71360;SDS011;59166;48.908;1.870;2022-11-23T11:27:33;4.28;;;1.10;;
71360;SDS011;59166;48.908;1.870;2022-11-23T11:32:39;6.63;;;1.67;;
71360;SDS011;59166;48.908;1.870;2022-11-23T11:37:51;6.55;;;1.88;;
71360;SDS011;59166;48.908;1.870;2022-11-23T11:42:56;5.18;;;1.58;;
71360;SDS011;59166;48.908;1.870;2022-11-23T11:48:06;4.60;;;1.00;;
71360;SDS011;59166;48.908;1.870;2022-11-23T11:53:14;6.40;;;1.50;;
71360;SDS011;59166;48.908;1.870;2022-11-23T11:58:18;6.57;;;1.67;;
71360;SDS011;59166;48.908;1.870;2022-11-23T12:03:29;8.47;;;1.90;;
71360;SDS011;59166;48.908;1.870;2022-11-23T12:08:39;5.53;;;1.80;;
71360;SDS011;59166;48.908;1.870;2022-11-23T12:13:48;5.25;;;1.50;;
71360;SDS011;59166;48.908;1.870;2022-11-23T12:18:52;6.07;;;1.10;;
71360;SDS011;59166;48.908;1.870;2022-11-23T12:24:03;5.40;;;1.10;;
71360;SDS011;59166;48.908;1.870;2022-11-23T12:29:22;6.65;;;1.27;;
71360;SDS011;59166;48.908;1.870;2022-11-23T12:45:49;8.40;;;1.17;;
71360;SDS011;59166;48.908;1.870;2022-11-23T12:51:12;10.77;;;1.70;;
71360;SDS011;59166;48.908;1.870;2022-11-23T12:56:23;12.07;;;1.07;;
71360;SDS011;59166;48.908;1.870;2022-11-23T13:01:37;9.35;;;1.45;;
71360;SDS011;59166;48.908;1.870;2022-11-23T13:12:31;8.20;;;1.43;;
71360;SDS011;59166;48.908;1.870;2022-11-23T13:17:45;11.10;;;1.57;;
71360;SDS011;59166;48.908;1.870;2022-11-23T13:22:53;8.75;;;1.40;;
71360;SDS011;59166;48.908;1.870;2022-11-23T13:27:57;7.85;;;1.20;;
71360;SDS011;59166;48.908;1.870;2022-11-23T13:33:21;11.33;;;2.00;;
71360;SDS011;59166;48.908;1.870;2022-11-23T13:38:28;12.85;;;1.60;;
71360;SDS011;59166;48.908;1.870;2022-11-23T13:43:36;12.60;;;1.75;;
71360;SDS011;59166;48.908;1.870;2022-11-23T13:48:42;13.63;;;1.77;;
71360;SDS011;59166;48.908;1.870;2022-11-23T13:53:49;8.18;;;1.73;;
71360;SDS011;59166;48.908;1.870;2022-11-23T13:58:52;9.75;;;1.52;;
71360;SDS011;59166;48.908;1.870;2022-11-23T14:04:20;10.27;;;1.27;;
71360;SDS011;59166;48.908;1.870;2022-11-23T14:09:28;8.87;;;1.40;;
71360;SDS011;59166;48.908;1.870;2022-11-23T14:14:42;9.43;;;1.17;;
71360;SDS011;59166;48.908;1.870;2022-11-23T14:19:49;9.30;;;1.42;;
71360;SDS011;59166;48.908;1.870;2022-11-23T14:25:20;7.63;;;0.97;;
71360;SDS011;59166;48.908;1.870;2022-11-23T14:30:43;11.80;;;1.60;;
71360;SDS011;59166;48.908;1.870;2022-11-23T14:35:57;11.35;;;1.83;;
71360;SDS011;59166;48.908;1.870;2022-11-23T14:41:13;8.07;;;1.50;;
71360;SDS011;59166;48.908;1.870;2022-11-23T14:46:18;11.35;;;1.40;;
71360;SDS011;59166;48.908;1.870;2022-11-23T14:51:21;10.18;;;1.40;;
71360;SDS011;59166;48.908;1.870;2022-11-23T14:56:28;8.60;;;1.20;;
71360;SDS011;59166;48.908;1.870;2022-11-23T15:01:32;10.13;;;1.70;;
71360;SDS011;59166;48.908;1.870;2022-11-23T15:06:35;6.75;;;1.20;;
71360;SDS011;59166;48.908;1.870;2022-11-23T15:11:43;9.88;;;1.52;;
71360;SDS011;59166;48.908;1.870;2022-11-23T15:16:44;9.97;;;1.97;;
71360;SDS011;59166;48.908;1.870;2022-11-23T15:21:44;12.68;;;2.60;;
71360;SDS011;59166;48.908;1.870;2022-11-23T15:26:47;10.20;;;1.63;;
71360;SDS011;59166;48.908;1.870;2022-11-23T15:31:48;8.23;;;1.50;;
71360;SDS011;59166;48.908;1.870;2022-11-23T15:36:49;13.65;;;2.40;;
71360;SDS011;59166;48.908;1.870;2022-11-23T15:41:52;10.47;;;2.40;;
71360;SDS011;59166;48.908;1.870;2022-11-23T15:47:14;18.70;;;4.15;;
71360;SDS011;59166;48.908;1.870;2022-11-23T15:52:18;13.10;;;2.47;;
71360;SDS011;59166;48.908;1.870;2022-11-23T15:57:22;14.87;;;2.10;;
71360;SDS011;59166;48.908;1.870;2022-11-23T16:02:26;14.20;;;2.85;;
71360;SDS011;59166;48.908;1.870;2022-11-23T16:07:28;10.52;;;1.90;;
71360;SDS011;59166;48.908;1.870;2022-11-23T16:12:32;18.33;;;4.27;;
71360;SDS011;59166;48.908;1.870;2022-11-23T16:17:44;22.33;;;4.63;;
71360;SDS011;59166;48.908;1.870;2022-11-23T16:22:47;19.60;;;4.40;;
71360;SDS011;59166;48.908;1.870;2022-11-23T16:27:57;14.47;;;3.20;;
71360;SDS011;59166;48.908;1.870;2022-11-23T16:32:58;14.38;;;2.72;;
71360;SDS011;59166;48.908;1.870;2022-11-23T16:37:59;13.07;;;2.10;;
71360;SDS011;59166;48.908;1.870;2022-11-23T16:43:01;13.57;;;2.67;;
71360;SDS011;59166;48.908;1.870;2022-11-23T16:48:02;17.38;;;3.78;;
71360;SDS011;59166;48.908;1.870;2022-11-23T16:53:08;16.37;;;2.50;;
71360;SDS011;59166;48.908;1.870;2022-11-23T16:58:14;24.25;;;4.85;;
71360;SDS011;59166;48.908;1.870;2022-11-23T17:03:15;15.82;;;3.78;;
71360;SDS011;59166;48.908;1.870;2022-11-23T17:08:17;13.23;;;2.90;;
71360;SDS011;59166;48.908;1.870;2022-11-23T17:13:20;15.95;;;2.60;;
71360;SDS011;59166;48.908;1.870;2022-11-23T17:18:23;14.47;;;2.30;;
71360;SDS011;59166;48.908;1.870;2022-11-23T17:23:24;12.07;;;1.70;;
71360;SDS011;59166;48.908;1.870;2022-11-23T17:28:26;11.07;;;2.00;;
71360;SDS011;59166;48.908;1.870;2022-11-23T17:33:27;13.00;;;2.50;;
71360;SDS011;59166;48.908;1.870;2022-11-23T17:38:28;14.95;;;2.50;;
71360;SDS011;59166;48.908;1.870;2022-11-23T17:43:30;15.53;;;2.47;;
71360;SDS011;59166;48.908;1.870;2022-11-23T17:48:31;12.63;;;2.45;;
71360;SDS011;59166;48.908;1.870;2022-11-23T17:53:32;11.52;;;1.98;;
71360;SDS011;59166;48.908;1.870;2022-11-23T17:58:34;12.57;;;2.10;;
71360;SDS011;59166;48.908;1.870;2022-11-23T18:03:35;15.32;;;2.03;;
71360;SDS011;59166;48.908;1.870;2022-11-23T18:08:36;13.40;;;2.30;;
71360;SDS011;59166;48.908;1.870;2022-11-23T18:13:42;11.27;;;1.98;;
71360;SDS011;59166;48.908;1.870;2022-11-23T18:18:43;16.50;;;2.45;;
71360;SDS011;59166;48.908;1.870;2022-11-23T18:23:44;12.97;;;2.43;;
71360;SDS011;59166;48.908;1.870;2022-11-23T18:28:46;17.67;;;2.80;;
71360;SDS011;59166;48.908;1.870;2022-11-23T18:33:47;11.80;;;2.17;;
71360;SDS011;59166;48.908;1.870;2022-11-23T18:38:48;11.77;;;2.03;;
71360;SDS011;59166;48.908;1.870;2022-11-23T18:43:50;13.70;;;2.47;;
71360;SDS011;59166;48.908;1.870;2022-11-23T18:48:51;15.88;;;2.30;;
71360;SDS011;59166;48.908;1.870;2022-11-23T18:53:52;12.10;;;1.77;;
71360;SDS011;59166;48.908;1.870;2022-11-23T18:58:54;11.75;;;2.25;;
71360;SDS011;59166;48.908;1.870;2022-11-23T19:03:55;13.20;;;2.25;;
71360;SDS011;59166;48.908;1.870;2022-11-23T19:08:56;10.17;;;2.13;;
71360;SDS011;59166;48.908;1.870;2022-11-23T19:13:58;16.92;;;2.85;;
71360;SDS011;59166;48.908;1.870;2022-11-23T19:19:00;14.40;;;2.50;;
71360;SDS011;59166;48.908;1.870;2022-11-23T19:24:02;17.67;;;2.90;;
71360;SDS011;59166;48.908;1.870;2022-11-23T19:29:25;15.63;;;2.55;;
71360;SDS011;59166;48.908;1.870;2022-11-23T19:34:26;17.00;;;2.47;;
71360;SDS011;59166;48.908;1.870;2022-11-23T19:39:27;14.38;;;2.47;;
71360;SDS011;59166;48.908;1.870;2022-11-23T19:44:29;10.97;;;2.57;;
71360;SDS011;59166;48.908;1.870;2022-11-23T19:49:30;17.95;;;3.25;;
71360;SDS011;59166;48.908;1.870;2022-11-23T19:54:31;13.73;;;2.35;;
71360;SDS011;59166;48.908;1.870;2022-11-23T19:59:33;17.67;;;2.47;;
71360;SDS011;59166;48.908;1.870;2022-11-23T20:04:34;14.13;;;2.53;;
71360;SDS011;59166;48.908;1.870;2022-11-23T20:09:35;17.05;;;2.53;;
71360;SDS011;59166;48.908;1.870;2022-11-23T20:14:37;16.00;;;2.60;;
71360;SDS011;59166;48.908;1.870;2022-11-23T20:19:38;16.00;;;2.40;;
71360;SDS011;59166;48.908;1.870;2022-11-23T20:24:39;16.80;;;2.77;;
71360;SDS011;59166;48.908;1.870;2022-11-23T20:29:41;14.52;;;2.70;;
71360;SDS011;59166;48.908;1.870;2022-11-23T20:34:42;15.67;;;2.67;;
71360;SDS011;59166;48.908;1.870;2022-11-23T20:39:43;16.73;;;2.63;;
71360;SDS011;59166;48.908;1.870;2022-11-23T20:44:46;15.55;;;2.42;;
71360;SDS011;59166;48.908;1.870;2022-11-23T20:49:46;17.20;;;2.43;;
71360;SDS011;59166;48.908;1.870;2022-11-23T20:54:47;16.87;;;2.83;;
71360;SDS011;59166;48.908;1.870;2022-11-23T20:59:50;17.80;;;2.67;;
71360;SDS011;59166;48.908;1.870;2022-11-23T21:04:50;16.63;;;2.20;;
71360;SDS011;59166;48.908;1.870;2022-11-23T21:09:51;17.63;;;2.20;;
71360;SDS011;59166;48.908;1.870;2022-11-23T21:14:53;22.67;;;3.20;;
71360;SDS011;59166;48.908;1.870;2022-11-23T21:19:54;19.63;;;2.40;;
71360;SDS011;59166;48.908;1.870;2022-11-23T21:25:03;15.00;;;2.33;;
71360;SDS011;59166;48.908;1.870;2022-11-23T21:30:15;20.73;;;2.50;;
71360;SDS011;59166;48.908;1.870;2022-11-23T21:35:16;16.98;;;2.30;;
71360;SDS011;59166;48.908;1.870;2022-11-23T21:40:20;14.32;;;2.22;;
71360;SDS011;59166;48.908;1.870;2022-11-23T21:45:27;14.20;;;2.27;;
71360;SDS011;59166;48.908;1.870;2022-11-23T21:50:37;18.08;;;2.50;;
71360;SDS011;59166;48.908;1.870;2022-11-23T21:55:38;18.00;;;2.95;;
71360;SDS011;59166;48.908;1.870;2022-11-23T22:00:40;19.30;;;2.47;;
71360;SDS011;59166;48.908;1.870;2022-11-23T22:05:41;13.43;;;2.33;;
71360;SDS011;59166;48.908;1.870;2022-11-23T22:10:42;16.13;;;2.40;;
71360;SDS011;59166;48.908;1.870;2022-11-23T22:15:44;21.17;;;2.43;;
71360;SDS011;59166;48.908;1.870;2022-11-23T22:20:48;19.70;;;2.83;;
71360;SDS011;59166;48.908;1.870;2022-11-23T22:25:50;19.07;;;2.50;;
71360;SDS011;59166;48.908;1.870;2022-11-23T22:30:53;16.15;;;2.70;;
71360;SDS011;59166;48.908;1.870;2022-11-23T22:36:00;24.38;;;3.08;;
71360;SDS011;59166;48.908;1.870;2022-11-23T22:41:12;19.70;;;2.50;;
71360;SDS011;59166;48.908;1.870;2022-11-23T22:51:35;15.90;;;2.30;;
71360;SDS011;59166;48.908;1.870;2022-11-23T22:56:36;21.45;;;2.58;;
71360;SDS011;59166;48.908;1.870;2022-11-23T23:01:38;23.37;;;2.70;;
71360;SDS011;59166;48.908;1.870;2022-11-23T23:06:39;17.20;;;2.65;;
71360;SDS011;59166;48.908;1.870;2022-11-23T23:11:40;22.90;;;2.78;;
71360;SDS011;59166;48.908;1.870;2022-11-23T23:16:43;17.87;;;2.30;;
71360;SDS011;59166;48.908;1.870;2022-11-23T23:21:44;17.45;;;2.05;;
71360;SDS011;59166;48.908;1.870;2022-11-23T23:26:44;19.20;;;2.73;;
71360;SDS011;59166;48.908;1.870;2022-11-23T23:31:47;12.60;;;1.70;;
71360;SDS011;59166;48.908;1.870;2022-11-23T23:36:48;15.30;;;2.10;;
71360;SDS011;59166;48.908;1.870;2022-11-23T23:41:49;15.10;;;2.17;;
71360;SDS011;59166;48.908;1.870;2022-11-23T23:46:51;10.00;;;2.10;;
71360;SDS011;59166;48.908;1.870;2022-11-23T23:51:52;14.43;;;2.00;;
71360;SDS011;59166;48.908;1.870;2022-11-23T23:56:53;16.27;;;2.17;;
